Terminal Aerodrome Forecast
Issued by NWS Pittsburgh, PA

Current Version | Previous Version | Graphics & Text | Print | Product List | Glossary On
Versions: 1 2 3 4 5 6 7 8 9 10 11 12 13 14 15 16 17 18 19 20 21 22 23 24 25 26 27 28 29 30 31 32 33 34 35
020
FTUS41 KPBZ 031137
TAFPIT
TAF
KPIT 031137Z 0312/0418 14014G22KT P6SM -SHRA BKN040 WS020/18050KT
      TEMPO 0312/0313 VRB15G25KT 4SM -SHRA
     FM031400 19012G22KT P6SM -SHRA BKN035 WS020/20040KT
     FM031800 23012G22KT P6SM BKN040
     FM040000 27012KT P6SM SCT040=

USA.gov is the U.S. government's official web portal to all federal, state and local government web resources and services.